Time;durP1;ratioP1;P1;durP2;ratioP2;P2;SDS_P1;SDS_P2;PMS_P1;PMS_P2;Temp;Humidity;BMP_temperature;BMP_pressure;BME280_temperature;BME280_humidity;BME280_pressure;Samples;Min_cycle;Max_cycle;Signal;HPM_P1;HPM_P2
2023/04/18 00:00:56;;;;;;;1.17;1.17;;;11.30;98.20;;;;;;5079595;28;20285;-68
2023/04/18 00:03:25;;;;;;;1.30;1.30;;;11.30;98.40;;;;;;5076839;28;20194;-68
2023/04/18 00:05:52;;;;;;;1.13;1.13;;;11.20;98.40;;;;;;5074545;28;20847;-67
2023/04/18 00:08:19;;;;;;;1.33;1.33;;;11.20;98.60;;;;;;5083064;28;20255;-67
2023/04/18 00:10:46;;;;;;;1.33;1.33;;;11.10;98.70;;;;;;5079833;28;20282;-68
2023/04/18 00:13:13;;;;;;;1.13;1.13;;;11.00;98.60;;;;;;5080533;28;20245;-68
2023/04/18 00:15:42;;;;;;;1.30;1.30;;;11.00;98.50;;;;;;5078899;28;20694;-68
2023/04/18 00:18:09;;;;;;;1.40;1.40;;;10.90;98.50;;;;;;5079875;28;20213;-67
2023/04/18 00:20:38;;;;;;;1.30;1.30;;;10.90;98.60;;;;;;5081176;28;20229;-68
2023/04/18 00:23:06;;;;;;;1.30;1.30;;;10.90;98.70;;;;;;5079068;28;20668;-68
2023/04/18 00:25:33;;;;;;;1.10;1.10;;;10.90;98.90;;;;;;5080410;28;20566;-68
2023/04/18 00:28:00;;;;;;;1.27;1.27;;;10.90;99.00;;;;;;5080050;28;20289;-67
2023/04/18 00:30:27;;;;;;;1.45;1.45;;;10.80;99.10;;;;;;5077974;28;20229;-68
2023/04/18 00:32:54;;;;;;;1.65;1.55;;;10.70;99.40;;;;;;5079788;28;20765;-68
2023/04/18 00:35:21;;;;;;;1.42;1.38;;;10.60;99.40;;;;;;5084500;28;20190;-68
2023/04/18 00:37:49;;;;;;;1.30;1.30;;;10.60;99.20;;;;;;5078608;28;20217;-68
2023/04/18 00:40:17;;;;;;;1.40;1.40;;;10.60;99.10;;;;;;5079653;28;20286;-69
2023/04/18 00:42:44;;;;;;;1.33;1.33;;;10.60;99.10;;;;;;5078995;28;20289;-68
2023/04/18 00:45:11;;;;;;;1.40;1.40;;;10.60;98.90;;;;;;5077939;28;20848;-68
2023/04/18 00:47:38;;;;;;;1.40;1.40;;;10.70;98.80;;;;;;5077396;28;20198;-68
2023/04/18 00:50:06;;;;;;;1.30;1.20;;;10.70;98.80;;;;;;5081071;28;20248;-69
2023/04/18 00:52:34;;;;;;;1.40;1.40;;;10.70;99.10;;;;;;5078298;28;20210;-68
2023/04/18 00:55:03;;;;;;;1.35;1.35;;;10.60;99.10;;;;;;5080001;28;20202;-68
2023/04/18 00:57:31;;;;;;;1.20;1.20;;;10.50;99.30;;;;;;5080122;28;20644;-68
2023/04/18 00:59:59;;;;;;;1.45;1.45;;;10.50;99.40;;;;;;5075807;28;20218;-68
2023/04/18 01:02:29;;;;;;;1.20;1.20;;;10.50;99.40;;;;;;5077128;28;20314;-68
2023/04/18 01:04:57;;;;;;;1.40;1.40;;;10.50;99.40;;;;;;5079351;28;20220;-68
2023/04/18 01:07:24;;;;;;;1.20;1.20;;;10.40;99.30;;;;;;5078035;28;20210;-68
2023/04/18 01:09:52;;;;;;;1.25;1.25;;;10.40;99.40;;;;;;5077050;28;20221;-68
2023/04/18 01:12:20;;;;;;;1.45;1.45;;;10.40;99.50;;;;;;5079233;28;20197;-68
2023/04/18 01:14:47;;;;;;;1.38;1.38;;;10.30;99.50;;;;;;5076862;28;20396;-68
2023/04/18 01:17:15;;;;;;;1.55;1.55;;;10.30;99.70;;;;;;5077853;28;20306;-69
2023/04/18 01:19:42;;;;;;;1.27;1.27;;;10.30;99.90;;;;;;5077981;28;20217;-68
2023/04/18 01:22:10;;;;;;;1.20;1.20;;;10.20;99.90;;;;;;5077196;28;20924;-67
2023/04/18 01:24:38;;;;;;;1.40;1.40;;;10.20;99.90;;;;;;5077496;28;20210;-68
2023/04/18 01:27:05;;;;;;;1.30;1.30;;;10.10;99.90;;;;;;5078871;28;20226;-68
2023/04/18 01:29:32;;;;;;;1.45;1.35;;;10.10;99.90;;;;;;5081517;28;20257;-70
2023/04/18 01:32:01;;;;;;;1.60;1.60;;;10.00;99.90;;;;;;5081212;28;20229;-71
2023/04/18 01:34:28;;;;;;;1.50;1.50;;;9.90;99.90;;;;;;5079989;28;20232;-69
2023/04/18 01:36:55;;;;;;;1.30;1.30;;;9.90;99.90;;;;;;5082674;28;20660;-69
2023/04/18 01:39:22;;;;;;;1.38;1.38;;;9.90;99.90;;;;;;5078743;28;20929;-69
2023/04/18 01:41:50;;;;;;;1.30;1.30;;;9.90;99.90;;;;;;5078648;28;20237;-70
2023/04/18 01:44:17;;;;;;;1.40;1.40;;;9.90;99.90;;;;;;5080918;28;20230;-67
2023/04/18 01:46:44;;;;;;;1.60;1.60;;;9.90;99.90;;;;;;5078754;28;20218;-69
2023/04/18 01:49:11;;;;;;;1.30;1.30;;;9.90;99.90;;;;;;5078701;28;20221;-69
2023/04/18 01:51:38;;;;;;;1.70;1.70;;;9.80;99.90;;;;;;5080211;28;20785;-71
2023/04/18 01:54:05;;;;;;;1.50;1.50;;;9.80;99.90;;;;;;5080413;28;20297;-68
2023/04/18 01:56:32;;;;;;;1.40;1.40;;;9.70;99.90;;;;;;5077303;28;20201;-69
2023/04/18 01:59:00;;;;;;;1.73;1.63;;;9.60;99.90;;;;;;5081326;28;20217;-71
2023/04/18 02:01:27;;;;;;;1.25;1.25;;;9.60;99.90;;;;;;5079482;28;20206;-71
2023/04/18 02:03:54;;;;;;;1.30;1.30;;;9.60;99.90;;;;;;5083782;28;20193;-70
2023/04/18 02:06:21;;;;;;;1.60;1.60;;;9.50;99.90;;;;;;5083819;28;20250;-70
2023/04/18 02:08:48;;;;;;;1.40;1.30;;;9.50;99.90;;;;;;5085745;28;20430;-70
2023/04/18 02:11:15;;;;;;;1.25;1.25;;;9.50;99.90;;;;;;5084059;28;20286;-71
2023/04/18 02:13:42;;;;;;;1.60;1.60;;;9.50;99.90;;;;;;5088144;28;20795;-71
2023/04/18 02:16:13;;;;;;;1.30;1.30;;;9.50;99.90;;;;;;5085669;28;20237;-70
2023/04/18 02:18:43;;;;;;;1.50;1.50;;;9.50;99.90;;;;;;5085348;28;20210;-68
2023/04/18 02:21:10;;;;;;;1.27;1.27;;;9.50;99.90;;;;;;5080500;28;20251;-68
2023/04/18 02:23:37;;;;;;;1.55;1.55;;;9.50;99.90;;;;;;5084107;28;20310;-70
2023/04/18 02:26:04;;;;;;;1.40;1.40;;;9.50;99.90;;;;;;5084055;28;20492;-70
2023/04/18 02:28:31;;;;;;;1.45;1.45;;;9.40;99.90;;;;;;5080980;28;20202;-68
2023/04/18 02:31:00;;;;;;;1.42;1.42;;;9.40;99.90;;;;;;5085555;28;20201;-68
2023/04/18 02:33:28;;;;;;;1.25;1.25;;;9.40;99.90;;;;;;5085284;28;20218;-68
2023/04/18 02:35:55;;;;;;;1.15;1.15;;;9.40;99.90;;;;;;5086241;28;20205;-70
2023/04/18 02:38:22;;;;;;;1.65;1.55;;;9.40;99.90;;;;;;5083668;28;20576;-69
2023/04/18 02:40:49;;;;;;;1.80;1.70;;;9.30;99.90;;;;;;5085371;28;20250;-68
2023/04/18 02:43:16;;;;;;;1.50;1.50;;;9.30;99.90;;;;;;5082579;28;20217;-68
2023/04/18 02:45:42;;;;;;;1.40;1.40;;;9.20;99.90;;;;;;5078296;28;20281;-68
2023/04/18 02:48:09;;;;;;;1.48;1.48;;;9.20;99.90;;;;;;5075285;28;20205;-67
2023/04/18 02:50:38;;;;;;;1.60;1.60;;;9.20;99.90;;;;;;5084427;28;20656;-68
2023/04/18 02:53:05;;;;;;;1.33;1.33;;;9.20;99.90;;;;;;5081410;28;20249;-67
2023/04/18 02:55:32;;;;;;;1.73;1.63;;;9.20;99.90;;;;;;5080703;28;20286;-68
2023/04/18 02:57:59;;;;;;;1.30;1.30;;;9.20;99.90;;;;;;5081227;28;20202;-70
2023/04/18 03:00:26;;;;;;;1.80;1.70;;;9.20;99.90;;;;;;5080541;28;20659;-68
2023/04/18 03:02:53;;;;;;;1.67;1.67;;;9.20;99.90;;;;;;5080645;28;20233;-68
2023/04/18 03:05:20;;;;;;;1.90;1.90;;;9.10;99.90;;;;;;5081847;28;20206;-66
2023/04/18 03:07:48;;;;;;;1.90;1.80;;;9.20;99.90;;;;;;5082608;28;20206;-70
2023/04/18 03:10:15;;;;;;;1.75;1.70;;;9.10;99.90;;;;;;5081214;28;20253;-68
2023/04/18 03:12:42;;;;;;;1.85;1.75;;;9.00;99.90;;;;;;5082033;28;20201;-68
2023/04/18 03:15:10;;;;;;;1.80;1.70;;;9.00;99.90;;;;;;5081837;28;20241;-69
2023/04/18 03:17:37;;;;;;;1.90;1.90;;;8.90;99.90;;;;;;5081711;28;20201;-69
2023/04/18 03:20:04;;;;;;;2.00;1.90;;;8.80;99.90;;;;;;5082085;28;20300;-70
2023/04/18 03:22:31;;;;;;;1.52;1.52;;;8.90;99.90;;;;;;5083254;28;20197;-69
2023/04/18 03:25:00;;;;;;;1.98;1.88;;;8.90;99.90;;;;;;5081064;28;20233;-70
2023/04/18 03:27:27;;;;;;;2.00;1.90;;;8.90;99.90;;;;;;5080140;28;20240;-72
2023/04/18 03:29:54;;;;;;;1.90;1.80;;;8.90;99.90;;;;;;5081112;28;20221;-71
2023/04/18 03:32:21;;;;;;;1.80;1.70;;;8.90;99.90;;;;;;5083057;28;20206;-69
2023/04/18 03:34:48;;;;;;;1.50;1.50;;;8.90;99.90;;;;;;5081290;28;20253;-68
2023/04/18 03:37:15;;;;;;;1.50;1.50;;;8.80;99.90;;;;;;5081217;28;20298;-68
2023/04/18 03:39:42;;;;;;;2.00;1.90;;;8.80;99.90;;;;;;5077883;28;21014;-69
2023/04/18 03:42:10;;;;;;;1.83;1.73;;;8.80;99.90;;;;;;5078965;28;20203;-68
2023/04/18 03:44:37;;;;;;;2.00;1.90;;;8.90;99.90;;;;;;5081397;28;20239;-69
2023/04/18 03:47:04;;;;;;;1.65;1.65;;;8.90;99.90;;;;;;5079404;28;20233;-70
2023/04/18 03:49:31;;;;;;;1.70;1.60;;;8.90;99.90;;;;;;5082778;28;20251;-70
2023/04/18 03:51:58;;;;;;;2.20;2.10;;;8.90;99.90;;;;;;5081651;28;20240;-68
2023/04/18 03:54:25;;;;;;;1.80;1.70;;;8.90;99.90;;;;;;5080983;28;20334;-68
2023/04/18 03:56:52;;;;;;;1.83;1.77;;;8.90;99.90;;;;;;5082658;28;20284;-69
2023/04/18 03:59:20;;;;;;;1.40;1.40;;;8.90;99.90;;;;;;5084140;28;20225;-70
2023/04/18 04:01:47;;;;;;;1.70;1.60;;;8.90;99.90;;;;;;5083626;28;20285;-70
2023/04/18 04:04:14;;;;;;;1.67;1.60;;;8.80;99.90;;;;;;5083234;28;20251;-69
2023/04/18 04:06:42;;;;;;;1.40;1.40;;;8.80;99.90;;;;;;5080883;28;20580;-68
2023/04/18 04:09:09;;;;;;;1.92;1.83;;;8.70;99.90;;;;;;5082189;28;20312;-70
2023/04/18 04:11:36;;;;;;;2.03;1.92;;;8.70;99.90;;;;;;5082762;28;20209;-68
2023/04/18 04:14:03;;;;;;;2.03;1.92;;;8.70;99.90;;;;;;5081085;28;20245;-70
2023/04/18 04:16:31;;;;;;;2.00;1.90;;;8.60;99.90;;;;;;5077159;28;20266;-69
2023/04/18 04:18:58;;;;;;;1.98;1.88;;;8.60;99.90;;;;;;5079576;28;20309;-68
2023/04/18 04:21:25;;;;;;;2.00;1.90;;;8.50;99.90;;;;;;5075249;28;20233;-68
2023/04/18 04:23:52;;;;;;;1.83;1.80;;;8.50;99.90;;;;;;5075981;28;20202;-70
2023/04/18 04:26:21;;;;;;;1.80;1.70;;;8.40;99.90;;;;;;5078043;28;20349;-67
2023/04/18 04:28:48;;;;;;;2.20;2.10;;;8.40;99.90;;;;;;5083621;28;20214;-67
2023/04/18 04:31:17;;;;;;;1.42;1.42;;;8.30;99.90;;;;;;5078741;28;20225;-69
2023/04/18 04:33:45;;;;;;;1.98;1.88;;;8.40;99.90;;;;;;5080670;28;20272;-69
2023/04/18 04:36:13;;;;;;;2.10;2.00;;;8.40;99.90;;;;;;5081429;28;20244;-70
2023/04/18 04:38:40;;;;;;;1.83;1.73;;;8.40;99.90;;;;;;5080113;28;20306;-69
2023/04/18 04:41:08;;;;;;;1.92;1.83;;;8.40;99.90;;;;;;5081166;28;20583;-68
2023/04/18 04:43:35;;;;;;;1.55;1.55;;;8.30;99.90;;;;;;5082142;28;20288;-69
2023/04/18 04:46:03;;;;;;;2.00;1.90;;;8.30;99.90;;;;;;5083156;28;20284;-70
2023/04/18 04:48:30;;;;;;;1.80;1.70;;;8.30;99.90;;;;;;5080137;28;20290;-69
2023/04/18 04:51:00;;;;;;;2.10;2.00;;;8.40;99.90;;;;;;5082792;28;20197;-68
2023/04/18 04:53:30;;;;;;;1.52;1.50;;;8.40;99.90;;;;;;5078585;28;20291;-68
2023/04/18 04:55:57;;;;;;;1.70;1.70;;;8.40;99.90;;;;;;5078421;28;20300;-68
2023/04/18 04:58:24;;;;;;;1.67;1.67;;;8.40;99.90;;;;;;5076650;28;20248;-68
2023/04/18 05:00:52;;;;;;;1.85;1.75;;;8.50;99.90;;;;;;5079232;28;20281;-69
2023/04/18 05:03:19;;;;;;;1.70;1.70;;;8.50;99.90;;;;;;5080289;28;20789;-68
2023/04/18 05:05:47;;;;;;;2.40;2.30;;;8.50;99.90;;;;;;5075797;28;20290;-69
2023/04/18 05:08:15;;;;;;;1.85;1.80;;;8.50;99.90;;;;;;5076921;28;20229;-70
2023/04/18 05:10:42;;;;;;;2.10;2.00;;;8.60;99.90;;;;;;5074695;28;20226;-68
2023/04/18 05:13:09;;;;;;;2.22;2.03;;;8.90;99.90;;;;;;5077624;28;20206;-72
2023/04/18 05:15:36;;;;;;;2.33;2.22;;;9.20;99.90;;;;;;5077155;28;20237;-70
2023/04/18 05:18:03;;;;;;;1.90;1.80;;;9.60;99.90;;;;;;5077378;28;20317;-68
2023/04/18 05:20:30;;;;;;;1.55;1.55;;;9.90;99.90;;;;;;5076024;28;20308;-69
2023/04/18 05:22:56;;;;;;;1.85;1.75;;;10.30;99.90;;;;;;5079693;28;20226;-68
2023/04/18 05:25:25;;;;;;;1.50;1.50;;;10.70;99.90;;;;;;5078544;28;20189;-68
2023/04/18 05:27:52;;;;;;;1.98;1.88;;;11.00;99.90;;;;;;5079551;28;20204;-69
2023/04/18 05:30:19;;;;;;;2.70;1.83;;;11.30;99.90;;;;;;5076724;28;20264;-69
2023/04/18 05:32:46;;;;;;;1.83;1.77;;;11.40;99.90;;;;;;5079678;28;20260;-69
2023/04/18 05:35:13;;;;;;;1.90;1.80;;;11.40;99.90;;;;;;5078855;28;20300;-69
2023/04/18 05:37:40;;;;;;;1.77;1.67;;;11.30;99.90;;;;;;5074031;28;20625;-69
2023/04/18 05:40:09;;;;;;;1.88;1.77;;;11.30;99.90;;;;;;5078633;28;20217;-69
2023/04/18 05:42:37;;;;;;;2.10;1.90;;;11.60;99.90;;;;;;5078745;28;20262;-69
2023/04/18 05:45:05;;;;;;;2.00;1.90;;;11.80;99.90;;;;;;5077863;28;20228;-70
2023/04/18 05:47:32;;;;;;;1.80;1.70;;;12.00;99.90;;;;;;5076502;28;20229;-70
2023/04/18 05:49:59;;;;;;;2.13;2.03;;;12.10;99.90;;;;;;5074393;28;20283;-68
2023/04/18 05:52:26;;;;;;;1.75;1.65;;;12.20;99.90;;;;;;5073892;28;20266;-69
2023/04/18 05:54:53;;;;;;;1.90;1.80;;;12.30;99.90;;;;;;5071231;28;20262;-70
2023/04/18 05:57:20;;;;;;;2.13;2.00;;;12.50;99.90;;;;;;5075189;28;20251;-69
2023/04/18 05:59:48;;;;;;;1.92;1.83;;;12.60;99.90;;;;;;5074677;28;20249;-71
2023/04/18 06:02:15;;;;;;;2.17;2.08;;;12.70;99.90;;;;;;5073911;28;20282;-70
2023/04/18 06:04:42;;;;;;;2.08;1.98;;;12.80;99.90;;;;;;5075653;28;20259;-70
2023/04/18 06:07:10;;;;;;;1.73;1.63;;;12.80;99.90;;;;;;5077626;28;20252;-70
2023/04/18 06:09:37;;;;;;;2.10;2.00;;;12.90;99.90;;;;;;5074245;28;20270;-69
2023/04/18 06:12:04;;;;;;;2.10;2.00;;;12.90;99.90;;;;;;5078591;28;20277;-70
2023/04/18 06:14:31;;;;;;;1.80;1.70;;;13.00;99.90;;;;;;5076516;28;20300;-70
2023/04/18 06:16:59;;;;;;;1.52;1.52;;;13.10;99.90;;;;;;5074878;28;20300;-70
2023/04/18 06:19:26;;;;;;;1.90;1.80;;;13.10;99.90;;;;;;5074220;28;21063;-71
2023/04/18 06:21:53;;;;;;;1.90;1.80;;;13.20;99.90;;;;;;5078604;28;20228;-69
2023/04/18 06:24:20;;;;;;;1.77;1.67;;;13.20;99.90;;;;;;5073178;28;20233;-71
2023/04/18 06:26:47;;;;;;;1.73;1.63;;;13.30;99.90;;;;;;5076925;28;20205;-71
2023/04/18 06:29:14;;;;;;;1.70;1.60;;;13.40;99.90;;;;;;5078689;28;20298;-71
2023/04/18 06:31:44;;;;;;;1.80;1.70;;;13.40;99.90;;;;;;5078123;28;20206;-70
2023/04/18 06:34:12;;;;;;;1.58;1.48;;;13.70;99.90;;;;;;5079710;28;20202;-70
2023/04/18 06:36:39;;;;;;;1.65;1.55;;;13.90;99.90;;;;;;5078871;28;20198;-70
2023/04/18 06:39:06;;;;;;;1.88;1.77;;;13.90;99.90;;;;;;5072777;28;20340;-71
2023/04/18 06:41:33;;;;;;;1.80;1.70;;;14.00;99.90;;;;;;5075812;28;20751;-70
2023/04/18 06:44:00;;;;;;;1.65;1.55;;;14.10;99.90;;;;;;5076152;28;20247;-71
2023/04/18 06:46:27;;;;;;;1.55;1.45;;;14.30;99.90;;;;;;5078337;28;20248;-71
2023/04/18 06:48:54;;;;;;;3.10;1.58;;;14.20;99.90;;;;;;5074574;28;20271;-71
2023/04/18 06:51:22;;;;;;;1.73;1.63;;;14.10;99.90;;;;;;5077595;28;20222;-70
2023/04/18 06:53:51;;;;;;;1.60;1.50;;;14.00;99.90;;;;;;5074933;28;20230;-70
2023/04/18 06:56:19;;;;;;;1.50;1.40;;;14.10;99.90;;;;;;5076929;28;20213;-70
2023/04/18 06:58:46;;;;;;;1.63;1.52;;;14.20;99.90;;;;;;5080727;28;20256;-70
2023/04/18 07:01:13;;;;;;;1.60;1.50;;;14.40;99.90;;;;;;5076227;28;20271;-71
2023/04/18 07:03:40;;;;;;;1.63;1.52;;;14.60;99.90;;;;;;5079414;28;21121;-70
2023/04/18 07:06:09;;;;;;;1.90;1.80;;;14.80;99.90;;;;;;5071887;28;20230;-72
2023/04/18 07:08:37;;;;;;;1.80;1.70;;;14.90;99.90;;;;;;5075570;28;20197;-70
2023/04/18 07:11:05;;;;;;;1.63;1.52;;;15.00;99.90;;;;;;5075178;28;20197;-70
2023/04/18 07:13:32;;;;;;;1.52;1.42;;;15.10;99.90;;;;;;5076005;28;20200;-72
2023/04/18 07:16:00;;;;;;;1.52;1.42;;;15.10;99.90;;;;;;5075525;28;20312;-71
2023/04/18 07:18:27;;;;;;;1.83;1.55;;;15.10;99.90;;;;;;5076737;28;20278;-70
2023/04/18 07:20:54;;;;;;;1.38;1.30;;;15.10;99.90;;;;;;5078874;28;20799;-70
2023/04/18 07:23:21;;;;;;;1.40;1.30;;;15.20;99.90;;;;;;5077979;28;20314;-70
2023/04/18 07:25:50;;;;;;;1.98;1.88;;;15.20;99.90;;;;;;5078200;28;20225;-69
2023/04/18 07:28:17;;;;;;;2.13;1.63;;;15.20;99.70;;;;;;5075617;28;20229;-71
2023/04/18 07:30:43;;;;;;;1.85;1.50;;;15.10;98.50;;;;;;5074928;28;20255;-71
2023/04/18 07:33:10;;;;;;;3.72;1.30;;;15.10;98.90;;;;;;5075732;28;20762;-71
2023/04/18 07:35:39;;;;;;;1.58;1.48;;;15.10;98.90;;;;;;5077982;28;20266;-70
2023/04/18 07:38:06;;;;;;;1.45;1.35;;;15.20;98.90;;;;;;5075618;28;20201;-70
2023/04/18 07:40:33;;;;;;;1.58;1.48;;;15.40;98.90;;;;;;5074580;28;20248;-70
2023/04/18 07:43:01;;;;;;;1.25;1.25;;;15.70;99.80;;;;;;5078648;28;20304;-70
2023/04/18 07:45:28;;;;;;;1.38;1.27;;;16.10;99.40;;;;;;5075773;28;20212;-70
2023/04/18 07:47:55;;;;;;;1.67;1.58;;;16.50;99.70;;;;;;5075283;28;20493;-70
2023/04/18 07:50:23;;;;;;;2.08;1.23;;;16.80;99.20;;;;;;5071493;28;20214;-70
2023/04/18 07:52:50;;;;;;;1.60;1.50;;;16.90;98.20;;;;;;5076034;28;20202;-70
2023/04/18 07:55:17;;;;;;;1.77;1.30;;;17.00;97.90;;;;;;5076026;28;20245;-71
2023/04/18 07:57:49;;;;;;;1.67;1.30;;;17.10;97.20;;;;;;5073162;28;20289;-69
2023/04/18 08:00:18;;;;;;;1.35;1.25;;;17.10;97.40;;;;;;5071832;28;20320;-70
2023/04/18 08:02:45;;;;;;;1.40;1.38;;;17.10;97.40;;;;;;5076892;28;20374;-73
2023/04/18 08:05:12;;;;;;;1.42;1.33;;;17.10;96.50;;;;;;5078122;28;20201;-72
2023/04/18 08:07:39;;;;;;;1.63;1.52;;;17.10;96.70;;;;;;5075676;28;20289;-70
2023/04/18 08:10:07;;;;;;;1.20;1.20;;;17.00;96.80;;;;;;5075796;28;20227;-71
2023/04/18 08:12:35;;;;;;;1.45;1.25;;;17.10;96.70;;;;;;5077014;28;20297;-69
2023/04/18 08:15:02;;;;;;;1.35;1.25;;;17.20;97.00;;;;;;5075887;28;20222;-71
2023/04/18 08:17:31;;;;;;;1.65;1.45;;;17.00;96.20;;;;;;5076886;28;20217;-71
2023/04/18 08:20:03;;;;;;;2.03;1.27;;;17.00;96.20;;;;;;5075379;28;20323;-68
2023/04/18 08:22:30;;;;;;;1.40;1.30;;;16.70;96.00;;;;;;5079339;28;20208;-71
2023/04/18 08:24:59;;;;;;;2.45;1.17;;;16.60;96.30;;;;;;5074870;28;20285;-67
2023/04/18 08:27:26;;;;;;;1.77;1.30;;;16.70;96.50;;;;;;5075523;28;20289;-72
2023/04/18 08:29:53;;;;;;;3.78;1.60;;;16.90;96.90;;;;;;5075939;28;20881;-72
2023/04/18 08:32:20;;;;;;;1.40;1.40;;;17.10;97.10;;;;;;5076403;28;20197;-72
2023/04/18 08:34:48;;;;;;;1.50;1.40;;;17.10;96.20;;;;;;5074952;28;20698;-69
2023/04/18 08:37:15;;;;;;;1.20;1.10;;;17.00;96.00;;;;;;5076894;28;20226;-72
2023/04/18 08:39:43;;;;;;;1.30;1.30;;;17.00;96.00;;;;;;5075563;28;20294;-73
2023/04/18 08:42:10;;;;;;;1.48;1.38;;;17.20;96.30;;;;;;5078154;28;20206;-72
2023/04/18 08:44:38;;;;;;;1.48;1.38;;;17.30;96.30;;;;;;5073639;28;20289;-74
2023/04/18 08:47:07;;;;;;;3.20;2.00;;;17.30;95.50;;;;;;5077417;28;20194;-71
2023/04/18 08:49:34;;;;;;;2.58;1.40;;;17.30;95.60;;;;;;5074557;28;20249;-72
2023/04/18 08:52:09;;;;;;;1.17;1.17;;;17.30;95.90;;;;;;5076856;28;20600;-70
2023/04/18 08:54:37;;;;;;;1.40;1.30;;;17.40;96.40;;;;;;5076642;28;20231;-71
2023/04/18 08:57:04;;;;;;;1.30;1.20;;;17.70;96.20;;;;;;5077983;28;20236;-72
2023/04/18 08:59:34;;;;;;;1.25;1.17;;;17.90;95.40;;;;;;5075209;28;20309;-71
2023/04/18 09:02:02;;;;;;;2.28;1.42;;;17.70;95.20;;;;;;5074189;28;20205;-71
2023/04/18 09:04:34;;;;;;;1.70;1.60;;;17.70;94.80;;;;;;5070189;28;20263;-72
2023/04/18 09:07:01;;;;;;;1.73;1.40;;;17.70;95.10;;;;;;5070367;28;20208;-73
2023/04/18 09:09:40;;;;;;;1.30;1.13;;;18.00;95.00;;;;;;5074291;28;21111;-71
2023/04/18 09:12:08;;;;;;;1.60;1.50;;;18.30;94.80;;;;;;5073442;28;20197;-71
2023/04/18 09:14:36;;;;;;;1.23;1.23;;;18.30;94.60;;;;;;5072996;28;20255;-71
2023/04/18 09:17:04;;;;;;;2.08;1.40;;;18.30;94.70;;;;;;5075016;28;20213;-71
2023/04/18 09:19:32;;;;;;;1.20;1.20;;;18.60;95.20;;;;;;5074718;28;20249;-72
2023/04/18 09:22:01;;;;;;;1.50;1.33;;;18.60;94.30;;;;;;5073529;28;20198;-72
2023/04/18 09:24:30;;;;;;;1.13;1.02;;;18.70;94.00;;;;;;5071499;28;20293;-72
2023/04/18 09:26:58;;;;;;;2.10;1.20;;;18.70;94.40;;;;;;5073751;28;20754;-72
2023/04/18 09:29:45;;;;;;;2.10;1.30;;;18.90;94.30;;;;;;5072648;28;20226;-73
2023/04/18 09:32:23;;;;;;;1.95;1.10;;;19.00;94.00;;;;;;5072087;28;20197;-74
2023/04/18 09:34:53;;;;;;;2.30;1.20;;;19.40;94.00;;;;;;5070327;28;20198;-74
2023/04/18 09:37:20;;;;;;;1.48;1.38;;;19.70;94.50;;;;;;5073086;28;20208;-72
2023/04/18 09:39:49;;;;;;;1.45;1.35;;;20.00;93.40;;;;;;5073244;28;20229;-72
2023/04/18 09:42:17;;;;;;;1.17;1.17;;;20.10;93.10;;;;;;5070620;28;20213;-74
2023/04/18 09:45:02;;;;;;;1.30;1.30;;;20.10;92.80;;;;;;5073781;28;20226;-71
2023/04/18 09:47:29;;;;;;;1.30;1.20;;;20.00;91.40;;;;;;5072372;28;20205;-71
2023/04/18 09:49:56;;;;;;;1.23;1.13;;;20.00;91.50;;;;;;5073499;28;20659;-75
2023/04/18 09:52:25;;;;;;;1.20;1.10;;;20.10;92.60;;;;;;5075839;28;20229;-73
2023/04/18 09:54:59;;;;;;;1.10;1.10;;;20.30;92.70;;;;;;5073045;28;20210;-72
2023/04/18 09:57:31;;;;;;;1.10;1.10;;;20.50;92.10;;;;;;5070706;28;20204;-72
2023/04/18 10:00:07;;;;;;;1.63;1.10;;;20.40;90.90;;;;;;5068360;28;20248;-71
2023/04/18 10:02:44;;;;;;;1.35;1.25;;;20.40;91.90;;;;;;5069133;28;20201;-72
2023/04/18 10:05:13;;;;;;;1.20;1.10;;;20.60;90.40;;;;;;5071013;28;20201;-72
2023/04/18 10:07:41;;;;;;;1.10;1.10;;;20.60;90.60;;;;;;5069400;28;20306;-72
2023/04/18 10:10:10;;;;;;;1.52;1.20;;;20.60;90.60;;;;;;5070542;28;20298;-72
2023/04/18 10:12:39;;;;;;;2.08;1.20;;;20.50;90.50;;;;;;5068050;28;20373;-72
2023/04/18 10:15:08;;;;;;;1.35;1.30;;;20.40;90.20;;;;;;5077012;28;20212;-72
2023/04/18 10:17:42;;;;;;;1.05;0.95;;;20.10;89.80;;;;;;5090686;28;20247;-74
2023/04/18 10:20:16;;;;;;;1.30;1.20;;;20.00;89.90;;;;;;5094334;28;20427;-74
2023/04/18 10:22:47;;;;;;;3.70;1.40;;;19.90;90.20;;;;;;5085388;28;20245;-74
2023/04/18 10:25:48;;;;;;;1.20;1.10;;;19.90;90.10;;;;;;5076474;28;20257;-73
2023/04/18 10:28:15;;;;;;;0.93;0.93;;;19.60;89.40;;;;;;5072439;28;20206;-71
2023/04/18 10:30:56;;;;;;;1.00;1.00;;;19.60;90.10;;;;;;5075739;28;20317;-71
2023/04/18 10:33:31;;;;;;;0.90;0.90;;;19.50;89.20;;;;;;5079699;28;20285;-72
2023/04/18 10:36:04;;;;;;;1.08;1.00;;;19.70;89.40;;;;;;5074497;28;20709;-70
2023/04/18 10:38:32;;;;;;;1.15;1.05;;;19.80;90.80;;;;;;5074045;28;20300;-70
2023/04/18 10:41:21;;;;;;;0.90;0.90;;;20.00;90.60;;;;;;5078332;28;20676;-72
2023/04/18 10:44:18;;;;;;;0.93;0.90;;;20.10;91.40;;;;;;5077194;28;20198;-71
2023/04/18 10:47:19;;;;;;;1.20;1.10;;;20.10;88.90;;;;;;5074528;28;20353;-70
2023/04/18 10:49:56;;;;;;;1.05;1.05;;;20.20;88.20;;;;;;5075068;28;20229;-70
2023/04/18 10:52:23;;;;;;;0.95;0.95;;;20.30;90.30;;;;;;5077377;28;20236;-71
2023/04/18 10:54:54;;;;;;;1.45;1.10;;;20.20;88.70;;;;;;5078323;28;20297;-71
2023/04/18 10:57:23;;;;;;;0.90;0.90;;;20.00;88.70;;;;;;5079421;28;20570;-70
2023/04/18 10:59:53;;;;;;;1.00;1.00;;;19.90;89.00;;;;;;5076360;28;20256;-71
2023/04/18 11:02:25;;;;;;;0.98;0.98;;;19.70;89.50;;;;;;5076209;28;20194;-71
2023/04/18 11:04:53;;;;;;;1.08;1.08;;;19.50;88.10;;;;;;5075195;28;20233;-71
2023/04/18 11:07:31;;;;;;;1.38;1.27;;;19.50;89.10;;;;;;5078264;28;20936;-71
2023/04/18 11:09:58;;;;;;;1.10;1.10;;;19.50;87.90;;;;;;5076150;28;20220;-70
2023/04/18 11:12:30;;;;;;;1.88;1.02;;;19.60;88.60;;;;;;5073895;28;20225;-72
2023/04/18 11:14:57;;;;;;;0.90;0.90;;;19.80;88.10;;;;;;5076328;28;20202;-71
2023/04/18 11:17:26;;;;;;;1.13;1.10;;;19.80;87.60;;;;;;5073805;28;20294;-72
2023/04/18 11:20:00;;;;;;;1.63;0.88;;;19.80;87.40;;;;;;5079126;28;20217;-72
2023/04/18 11:22:28;;;;;;;0.82;0.82;;;19.90;87.80;;;;;;5076398;28;20206;-71
2023/04/18 11:24:58;;;;;;;1.00;1.00;;;19.90;89.60;;;;;;5078773;28;20197;-69
2023/04/18 11:27:27;;;;;;;1.08;1.08;;;19.90;90.00;;;;;;5071716;28;20850;-71
2023/04/18 11:29:54;;;;;;;0.90;0.90;;;19.70;88.00;;;;;;5072534;28;20273;-70
2023/04/18 11:32:23;;;;;;;1.20;1.20;;;19.50;88.30;;;;;;5075119;28;21002;-72
2023/04/18 11:34:52;;;;;;;1.25;1.15;;;19.20;88.40;;;;;;5072389;28;20207;-71
2023/04/18 11:37:19;;;;;;;1.05;1.05;;;19.10;89.30;;;;;;5077037;28;20571;-71
2023/04/18 11:39:46;;;;;;;0.90;0.90;;;19.30;88.90;;;;;;5075228;28;20227;-70
2023/04/18 11:42:13;;;;;;;1.13;1.10;;;19.70;88.00;;;;;;5076928;28;20194;-71
2023/04/18 11:44:46;;;;;;;0.95;0.95;;;20.00;88.60;;;;;;5079047;28;21557;-71
2023/04/18 11:47:27;;;;;;;1.08;0.93;;;20.50;88.30;;;;;;5079020;28;20304;-72
2023/04/18 11:49:58;;;;;;;1.08;1.08;;;20.90;85.40;;;;;;5074721;28;20539;-71
2023/04/18 11:52:27;;;;;;;1.20;1.10;;;21.40;85.50;;;;;;5074164;28;20291;-71
2023/04/18 11:54:54;;;;;;;1.15;1.10;;;21.60;84.20;;;;;;5078201;28;20659;-71
2023/04/18 11:57:26;;;;;;;0.90;0.90;;;21.80;83.00;;;;;;5075350;28;20213;-70
2023/04/18 11:59:55;;;;;;;2.03;1.00;;;21.80;81.30;;;;;;5075584;28;20218;-70
2023/04/18 12:02:26;;;;;;;0.93;0.88;;;22.00;83.00;;;;;;5076730;28;20288;-69
2023/04/18 12:04:54;;;;;;;1.30;1.15;;;22.10;82.40;;;;;;5074778;28;20229;-70
2023/04/18 12:07:40;;;;;;;1.98;1.00;;;22.10;81.40;;;;;;5074328;28;20628;-70
2023/04/18 12:10:09;;;;;;;1.02;1.02;;;22.20;75.90;;;;;;5077547;28;20236;-69
2023/04/18 12:12:36;;;;;;;0.80;0.80;;;22.20;79.60;;;;;;5075834;28;20251;-69
2023/04/18 12:15:08;;;;;;;1.20;1.10;;;22.30;79.10;;;;;;5075814;28;20630;-70
2023/04/18 12:17:37;;;;;;;0.90;0.90;;;22.40;80.80;;;;;;5072929;28;20296;-69
2023/04/18 12:20:06;;;;;;;0.88;0.80;;;22.50;77.50;;;;;;5076368;28;20213;-69
2023/04/18 12:22:44;;;;;;;1.10;1.08;;;22.60;77.00;;;;;;5076206;28;20672;-69
2023/04/18 12:25:20;;;;;;;0.90;0.90;;;22.70;76.60;;;;;;5075690;28;20279;-68
2023/04/18 12:27:53;;;;;;;1.10;1.00;;;22.90;78.70;;;;;;5075837;28;20228;-70
2023/04/18 12:30:22;;;;;;;0.90;0.90;;;23.20;79.40;;;;;;5073975;28;20230;-69
2023/04/18 12:32:51;;;;;;;0.80;0.80;;;23.60;78.70;;;;;;5076922;28;20240;-70
2023/04/18 12:35:19;;;;;;;1.02;1.02;;;23.70;74.40;;;;;;5079321;28;20201;-69
2023/04/18 12:37:46;;;;;;;1.00;0.90;;;23.50;75.10;;;;;;5072928;28;20218;-69
2023/04/18 12:40:14;;;;;;;0.80;0.80;;;23.40;73.80;;;;;;5076722;28;20217;-69
2023/04/18 12:42:41;;;;;;;1.10;0.85;;;23.20;72.50;;;;;;5073870;28;20233;-68
2023/04/18 12:45:10;;;;;;;0.80;0.80;;;23.00;71.00;;;;;;5078312;28;20237;-70
2023/04/18 12:47:39;;;;;;;0.90;0.90;;;22.90;72.70;;;;;;5072638;28;20217;-72
2023/04/18 12:50:08;;;;;;;0.88;0.88;;;22.90;70.90;;;;;;5076593;28;20297;-70
2023/04/18 12:52:37;;;;;;;0.70;0.70;;;22.90;71.60;;;;;;5077319;28;20694;-70
2023/04/18 12:55:04;;;;;;;0.70;0.70;;;23.00;71.50;;;;;;5076416;28;20225;-69
2023/04/18 12:57:32;;;;;;;0.82;0.82;;;23.00;70.00;;;;;;5077157;28;20221;-70